PAKT

Ketchikan International Airport

Ketchikan, Alaska, USA
PAKT 200531Z 2006/2106 14010KT 6SM -RA BR SCT008 OVC015 TEMPO 2006/2010 4SM -RA BR BKN008 FM202200 16012KT P6SM -SHRA OVC025 AMD LTD TO CLD VIS AND WIND 2006/2015
Issued Valid From Valid To
Jan-20 @ 05:31 UTC
(5 hours ago)
Jan-20 @ 06:00 UTC
(5 hours ago)
Jan-21 @ 06:00 UTC
(in 19 hours)
Jan-20 @ 06:00 to Jan-20 @ 22:00
PAKT 200531Z 2006/2106 14010KT 6SM -RA BR SCT008 OVC015
Wind Visibility Clouds Conditions
140° at 10 knots 6 miles
  • Scattered at 800' AGL
  • Overcast at 1,500' AGL
  • Light Rain
  • Mist
Expired Click to View Jan-20 @ 06:00 to Jan-20 @ 10:00
TEMPO 2006/2010 4SM -RA BR BKN008
Visibility Clouds Conditions
4 miles
  • Broken at 800' AGL
  • Light Rain
  • Mist
From Jan-20 @ 22:00 to Jan-21 @ 06:00
FM202200 16012KT P6SM -SHRA OVC025 AMD LTD TO CLD VIS AND WIND 2006/2015
Wind Visibility Clouds Conditions
160° at 12 knots Greater than 6 miles
  • Overcast at 2,500' AGL
  • Light Rain
PAKT 200531Z 2006/2106 14010KT 6SM -RA BR SCT008 OVC015 TEMPO 2006/2010 4SM -RA BR BKN008 FM202200 16012KT P6SM -SHRA OVC025 AMD LTD TO CLD VIS AND WIND 2006/2015
Issued Jan-20 @ 05:31 UTC
(5 hours ago)
Valid From Jan-20 @ 06:00 UTC
(5 hours ago)
Valid To Jan-21 @ 06:00 UTC
(in 19 hours)
Jan-20 @ 06:00 - Jan-20 @ 22:00
Wind Visibility
140° at 10 knots 6 miles
Clouds
  • Scattered at 800' AGL
  • Overcast at 1,500' AGL
Conditions
  • Light Rain
  • Mist
Jan-20 @ 06:00 - Jan-20 @ 10:00
Clouds
  • Broken at 800' AGL
Conditions
  • Light Rain
  • Mist
From Jan-20 @ 22:00 - Jan-21 @ 06:00
Wind Visibility
160° at 12 knots Greater than 6 miles
Clouds
  • Overcast at 2,500' AGL
Conditions
  • Light Rain